Time;durP1;ratioP1;P1;durP2;ratioP2;P2;SDS_P1;SDS_P2;PMS_P1;PMS_P2;Temp;Humidity;BMP_temperature;BMP_pressure;BME280_temperature;BME280_humidity;BME280_pressure;Samples;Min_cycle;Max_cycle;Signal;HPM_P1;HPM_P2
2022/12/15 00:39:12;;;;;;;28.45;16.63;;;;;;;-4.38;70.33;100438.06;3611569;39;20124;-63
2022/12/15 00:41:38;;;;;;;26.98;15.15;;;;;;;-4.39;70.06;100441.59;3609870;39;20051;-63
2022/12/15 00:44:04;;;;;;;29.98;16.45;;;;;;;-4.43;70.77;100433.72;3611367;39;20134;-64
2022/12/15 01:22:06;;;;;;;27.80;16.30;;;;;;;-4.29;71.16;100459.00;3609117;39;20659;-63
2022/12/15 01:24:31;;;;;;;28.17;16.20;;;;;;;-4.26;71.20;100456.34;3602601;39;20103;-62
2022/12/15 01:26:57;;;;;;;29.50;16.23;;;;;;;-4.32;71.38;100454.63;3604813;39;20398;-62
2022/12/15 01:29:24;;;;;;;27.55;16.23;;;;;;;-4.27;70.90;100459.88;3612999;39;20047;-62
2022/12/15 01:31:50;;;;;;;28.70;17.00;;;;;;;-4.24;70.65;100462.47;3608552;39;20132;-62
2022/12/15 01:34:18;;;;;;;27.05;15.18;;;;;;;-4.24;70.81;100457.22;3606360;39;20063;-63
2022/12/15 01:36:45;;;;;;;26.25;16.95;;;;;;;-4.24;70.83;100454.59;3610583;39;20332;-63
2022/12/15 01:39:11;;;;;;;29.95;16.88;;;;;;;-4.25;70.52;100455.44;3611706;39;20087;-62
2022/12/15 01:41:37;;;;;;;30.70;16.17;;;;;;;-4.38;71.18;100422.31;3611161;39;20055;-63
2022/12/15 01:44:22;;;;;;;32.20;16.70;;;;;;;-4.25;70.45;100450.22;3609633;39;20112;-63
2022/12/15 01:46:55;;;;;;;27.48;15.90;;;;;;;-4.27;70.54;100452.84;3604642;39;20059;-63
2022/12/15 01:49:27;;;;;;;31.17;17.35;;;;;;;-4.25;70.88;100461.59;3604088;39;21003;-63
2022/12/15 01:52:04;;;;;;;29.67;16.30;;;;;;;-4.25;70.89;100460.69;3611447;39;20054;-63
2022/12/15 01:54:45;;;;;;;29.13;16.13;;;;;;;-4.24;71.18;100476.44;3608700;39;20117;-64
2022/12/15 01:57:23;;;;;;;30.85;17.67;;;;;;;-4.22;70.49;100476.41;3603957;39;20120;-64
2022/12/15 01:59:56;;;;;;;29.15;16.15;;;;;;;-4.52;71.14;100411.94;3610604;39;20417;-64
2022/12/15 02:02:29;;;;;;;30.08;16.02;;;;;;;-4.16;71.21;100476.38;3610701;39;20058;-63
2022/12/15 02:04:58;;;;;;;30.48;16.38;;;;;;;-4.15;70.09;100482.50;3607550;39;20050;-63
2022/12/15 02:07:25;;;;;;;28.52;15.93;;;;;;;-4.15;70.17;100488.66;3609085;39;20051;-63
2022/12/15 02:09:56;;;;;;;30.10;16.83;;;;;;;-4.15;70.41;100499.13;3610534;39;20055;-63
2022/12/15 02:13:00;;;;;;;28.33;16.48;;;;;;;-4.18;70.02;100498.28;3606524;39;20064;-63
2022/12/15 02:16:08;;;;;;;28.65;16.08;;;;;;;-4.22;70.85;100502.66;3604140;39;20043;-63
2022/12/15 02:18:50;;;;;;;29.52;16.60;;;;;;;-4.21;70.78;100509.69;3609156;39;20049;-63
2022/12/15 02:21:51;;;;;;;31.02;16.33;;;;;;;-4.28;70.41;100493.09;3611371;39;20066;-64
2022/12/15 02:24:37;;;;;;;31.90;15.82;;;;;;;-4.26;70.53;100500.94;3611627;39;20058;-64
2022/12/15 02:27:43;;;;;;;31.10;16.50;;;;;;;-4.37;70.52;100487.06;3611226;39;20093;-64
2022/12/15 02:30:21;;;;;;;33.38;16.08;;;;;;;-4.34;70.04;100506.25;3612301;39;20049;-65
2022/12/15 02:33:23;;;;;;;29.65;16.13;;;;;;;-4.36;69.78;100504.53;3611254;39;20051;-63
2022/12/15 02:36:13;;;;;;;30.23;16.75;;;;;;;-4.39;70.69;100505.41;3587830;39;20047;-64
2022/12/15 02:38:40;;;;;;;30.98;16.30;;;;;;;-4.39;71.15;100513.28;3610002;39;20060;-64
2022/12/15 02:41:41;;;;;;;28.15;16.60;;;;;;;-4.39;71.08;100515.03;3610207;39;20051;-64
2022/12/15 02:44:27;;;;;;;29.02;16.35;;;;;;;-4.38;71.06;100503.66;3609811;39;20048;-63
2022/12/15 02:47:17;;;;;;;28.90;16.17;;;;;;;-4.41;71.19;100503.66;3603656;39;20378;-63
2022/12/15 02:50:00;;;;;;;31.10;16.52;;;;;;;-4.41;71.27;100508.91;3607096;39;20051;-63
2022/12/15 02:52:40;;;;;;;29.05;16.42;;;;;;;-4.42;70.38;100510.66;3608657;39;20109;-64
2022/12/15 02:55:45;;;;;;;25.85;15.77;;;;;;;-4.41;70.65;100511.53;3605524;39;20329;-64
2022/12/15 02:58:24;;;;;;;31.10;16.02;;;;;;;-4.43;70.80;100515.06;3604427;39;20390;-64
2022/12/15 03:01:05;;;;;;;25.70;15.82;;;;;;;-4.44;71.30;100513.31;3610857;39;20063;-63
2022/12/15 03:03:34;;;;;;;33.28;16.95;;;;;;;-4.44;71.01;100512.41;3606316;39;20058;-63
2022/12/15 03:06:04;;;;;;;29.15;15.77;;;;;;;-4.46;71.06;100512.44;3609478;39;20138;-61
2022/12/15 03:08:29;;;;;;;32.20;17.00;;;;;;;-4.46;71.41;100511.56;3611225;39;20106;-64
2022/12/15 03:10:57;;;;;;;28.83;16.73;;;;;;;-4.46;71.25;100509.81;3605150;39;20051;-64
2022/12/15 03:13:24;;;;;;;30.73;16.55;;;;;;;-4.71;70.61;100482.00;3608821;39;20059;-64
2022/12/15 03:15:51;;;;;;;28.00;15.65;;;;;;;-4.48;70.91;100522.06;3607409;39;20043;-64
2022/12/15 03:18:17;;;;;;;32.67;16.73;;;;;;;-4.49;71.41;100515.09;3608444;39;20370;-64
2022/12/15 03:20:43;;;;;;;27.35;16.50;;;;;;;-4.43;71.01;100519.44;3610488;39;20062;-64
2022/12/15 03:23:08;;;;;;;30.02;17.42;;;;;;;-4.41;70.72;100522.91;3613592;39;20065;-64
2022/12/15 03:25:34;;;;;;;28.60;16.23;;;;;;;-4.38;71.42;100527.25;3611079;39;20055;-63
2022/12/15 03:27:59;;;;;;;29.48;17.65;;;;;;;-4.53;70.86;100508.13;3607678;39;20070;-64
2022/12/15 03:30:25;;;;;;;25.38;16.30;;;;;;;-4.37;71.43;100527.28;3610590;39;20054;-64
2022/12/15 03:32:51;;;;;;;29.83;16.58;;;;;;;-4.34;71.83;100531.63;3609797;39;20055;-63
2022/12/15 03:35:16;;;;;;;25.90;17.10;;;;;;;-4.51;72.00;100495.84;3611577;39;20054;-64
2022/12/15 03:37:42;;;;;;;30.52;16.75;;;;;;;-4.30;71.50;100535.97;3611823;39;20061;-69
2022/12/15 03:40:09;;;;;;;28.60;16.60;;;;;;;-4.28;71.39;100529.84;3610106;39;20062;-63
2022/12/15 03:42:47;;;;;;;27.60;16.48;;;;;;;-4.25;71.15;100531.53;3609288;39;20058;-64
2022/12/15 03:45:14;;;;;;;30.58;17.25;;;;;;;-4.24;71.24;100542.06;3612206;39;20062;-64
2022/12/15 03:47:41;;;;;;;30.50;17.42;;;;;;;-4.24;71.26;100535.94;3609202;39;20049;-63
2022/12/15 03:50:08;;;;;;;31.70;17.30;;;;;;;-4.23;71.18;100542.91;3612821;39;20051;-64
2022/12/15 03:52:35;;;;;;;26.20;15.90;;;;;;;-4.23;70.87;100537.66;3610054;39;20047;-64
2022/12/15 03:55:01;;;;;;;31.30;16.77;;;;;;;-4.23;71.21;100540.28;3609571;39;20070;-64
2022/12/15 03:57:26;;;;;;;28.40;16.60;;;;;;;-4.23;71.29;100538.53;3609953;39;20058;-64
2022/12/15 03:59:52;;;;;;;27.40;16.63;;;;;;;-4.30;71.23;100528.97;3609587;39;20046;-64
2022/12/15 04:02:18;;;;;;;30.63;16.48;;;;;;;-4.24;71.10;100531.56;3606082;39;20063;-64
2022/12/15 04:04:43;;;;;;;28.33;16.52;;;;;;;-4.23;70.86;100540.28;3612121;39;20126;-64
2022/12/15 04:07:09;;;;;;;30.48;16.08;;;;;;;-4.25;70.64;100539.41;3609717;39;20081;-64
2022/12/15 04:09:35;;;;;;;28.50;15.88;;;;;;;-4.26;70.64;100541.19;3606840;39;20047;-64
2022/12/15 04:12:04;;;;;;;29.10;17.10;;;;;;;-4.26;70.30;100543.81;3609800;39;20405;-64
2022/12/15 04:14:30;;;;;;;27.88;16.45;;;;;;;-4.28;70.03;100535.09;3610571;39;20309;-62
2022/12/15 04:16:56;;;;;;;25.30;15.15;;;;;;;-4.31;70.03;100526.38;3605000;39;20059;-61
2022/12/15 04:22:06;;;;;;;30.50;16.80;;;;;;;-4.35;70.60;100533.34;3609821;39;20359;-63
2022/12/15 05:33:15;;;;;;;32.42;18.58;;;;;;;-4.38;71.44;100564.00;3605454;39;20105;-63
2022/12/15 05:35:41;;;;;;;35.35;19.45;;;;;;;-4.38;71.43;100569.25;3610981;39;20054;-62
2022/12/15 05:38:07;;;;;;;31.83;19.23;;;;;;;-4.37;70.94;100568.38;3610938;39;20051;-63
2022/12/15 05:40:32;;;;;;;34.97;19.30;;;;;;;-4.41;70.78;100564.88;3613133;39;20313;-63
2022/12/15 05:42:59;;;;;;;36.13;19.45;;;;;;;-4.39;71.45;100578.88;3610150;39;20105;-63
2022/12/15 05:45:27;;;;;;;31.33;18.92;;;;;;;-4.39;72.01;100586.72;3609554;39;20324;-63
2022/12/15 05:47:54;;;;;;;32.13;18.90;;;;;;;-4.39;72.21;100573.63;3604098;39;20567;-63
2022/12/15 05:50:22;;;;;;;32.97;19.45;;;;;;;-4.37;72.14;100581.50;3606430;39;20047;-63
2022/12/15 05:52:48;;;;;;;34.30;19.95;;;;;;;-4.41;72.65;100574.50;3609966;39;20297;-63
2022/12/15 05:55:15;;;;;;;32.80;19.67;;;;;;;-4.34;72.17;100582.34;3612633;39;20065;-63
2022/12/15 05:57:41;;;;;;;33.13;19.27;;;;;;;-4.35;72.19;100582.34;3605783;39;20115;-63
2022/12/15 06:00:07;;;;;;;37.58;19.88;;;;;;;-4.38;72.32;100579.72;3610190;39;20081;-63
2022/12/15 06:02:33;;;;;;;34.15;19.40;;;;;;;-4.40;72.38;100584.13;3611935;39;20058;-63
2022/12/15 06:04:59;;;;;;;31.23;19.10;;;;;;;-4.34;71.85;100599.84;3609846;39;20113;-63
2022/12/15 06:07:24;;;;;;;36.33;20.27;;;;;;;-4.33;72.20;100601.59;3610909;39;20058;-63
2022/12/15 06:09:50;;;;;;;33.25;20.30;;;;;;;-4.33;72.97;100594.56;3610457;39;20047;-63
2022/12/15 06:12:16;;;;;;;32.72;19.75;;;;;;;-4.29;73.06;100590.19;3611174;39;20069;-63
2022/12/15 06:14:41;;;;;;;36.70;21.58;;;;;;;-4.27;72.73;100583.19;3604665;39;20062;-63
2022/12/15 06:17:07;;;;;;;35.50;19.40;;;;;;;-4.29;73.07;100580.56;3606498;39;20063;-63
2022/12/15 06:19:33;;;;;;;36.15;20.65;;;;;;;-4.21;73.22;100589.28;3609461;39;20090;-63
2022/12/15 06:21:58;;;;;;;34.70;21.48;;;;;;;-4.20;73.25;100591.00;3609821;39;20070;-63
2022/12/15 06:24:24;;;;;;;35.20;20.30;;;;;;;-4.20;72.23;100598.00;3612136;39;20050;-63
2022/12/15 06:26:51;;;;;;;31.52;19.45;;;;;;;-4.19;72.98;100594.50;3609904;39;20108;-63
2022/12/15 06:29:17;;;;;;;34.35;19.67;;;;;;;-4.37;72.19;100558.75;3611037;39;20046;-63
2022/12/15 06:31:43;;;;;;;33.60;19.52;;;;;;;-4.25;71.70;100579.69;3611072;39;20112;-63
2022/12/15 06:34:15;;;;;;;35.47;20.83;;;;;;;-4.22;71.41;100594.50;3610364;39;21970;-63
2022/12/15 06:36:41;;;;;;;43.05;22.45;;;;;;;-4.35;71.10;100580.59;3610502;39;20123;-63
2022/12/15 06:39:12;;;;;;;36.83;20.58;;;;;;;-4.24;71.00;100609.41;3610584;39;20051;-63
2022/12/15 06:41:38;;;;;;;40.08;21.88;;;;;;;-4.55;70.95;100558.84;3609444;39;20073;-62
2022/12/15 06:44:04;;;;;;;36.55;20.33;;;;;;;-4.31;71.07;100613.81;3610514;39;20058;-62
2022/12/15 06:46:33;;;;;;;42.53;21.58;;;;;;;-4.32;71.23;100616.44;3611556;39;20046;-63
2022/12/15 06:48:59;;;;;;;40.70;22.13;;;;;;;-4.34;72.05;100611.22;3608022;39;20089;-63
2022/12/15 06:51:27;;;;;;;36.55;19.88;;;;;;;-4.36;72.34;100609.47;3611732;39;20059;-63
2022/12/15 06:53:54;;;;;;;33.65;19.05;;;;;;;-4.35;72.11;100606.81;3603856;39;20056;-63
2022/12/15 06:56:26;;;;;;;31.55;18.63;;;;;;;-4.33;71.94;100604.22;3609068;39;20492;-62
2022/12/15 06:58:53;;;;;;;33.20;17.85;;;;;;;-4.30;72.25;100609.44;3607317;39;20059;-62
2022/12/15 07:01:22;;;;;;;34.20;19.90;;;;;;;-4.28;72.57;100605.03;3608142;39;20090;-62
2022/12/15 07:03:48;;;;;;;29.92;18.95;;;;;;;-4.27;72.99;100606.81;3613841;39;20043;-63
2022/12/15 07:06:15;;;;;;;28.75;18.63;;;;;;;-4.32;72.78;100595.44;3606906;39;20363;-62
2022/12/15 07:08:42;;;;;;;29.20;17.83;;;;;;;-4.25;72.65;100619.03;3607269;39;20105;-62
2022/12/15 07:11:11;;;;;;;31.27;18.55;;;;;;;-4.26;72.72;100622.53;3606147;39;20481;-64
2022/12/15 07:13:37;;;;;;;32.05;17.75;;;;;;;-4.27;72.65;100625.16;3610719;39;20362;-62
2022/12/15 07:16:06;;;;;;;34.58;18.70;;;;;;;-4.49;72.10;100588.53;3608652;39;20051;-62
2022/12/15 07:18:33;;;;;;;30.65;18.67;;;;;;;-4.37;72.04;100605.09;3611171;39;20296;-63
2022/12/15 07:21:05;;;;;;;35.80;18.90;;;;;;;-4.28;72.60;100618.16;3609289;39;20070;-63
2022/12/15 07:23:32;;;;;;;34.42;19.13;;;;;;;-4.23;73.05;100621.66;3610239;39;20318;-63
2022/12/15 07:26:02;;;;;;;32.80;19.00;;;;;;;-4.19;73.16;100628.59;3606045;39;20075;-63
2022/12/15 07:28:28;;;;;;;30.45;18.17;;;;;;;-4.16;73.16;100627.72;3610834;39;20059;-63
2022/12/15 07:30:53;;;;;;;32.90;19.27;;;;;;;-4.16;73.10;100628.59;3608978;39;20061;-63
2022/12/15 07:33:19;;;;;;;29.35;17.42;;;;;;;-4.16;72.61;100623.34;3611154;39;20082;-63
2022/12/15 07:35:53;;;;;;;30.50;19.25;;;;;;;-4.14;72.39;100621.59;3609692;39;20043;-63
2022/12/15 07:38:19;;;;;;;31.67;19.52;;;;;;;-4.12;72.83;100624.19;3612564;39;20047;-63
2022/12/15 07:40:45;;;;;;;33.25;17.67;;;;;;;-4.10;73.04;100633.81;3607941;39;20122;-63
2022/12/15 07:43:10;;;;;;;33.30;19.55;;;;;;;-4.09;72.58;100634.69;3610629;39;20266;-63
2022/12/15 07:45:36;;;;;;;33.47;19.20;;;;;;;-4.07;72.76;100631.19;3610673;39;20070;-64
2022/12/15 07:48:01;;;;;;;30.08;18.85;;;;;;;-4.04;72.72;100633.78;3608992;39;20432;-63
2022/12/15 07:50:28;;;;;;;34.75;19.77;;;;;;;-4.00;72.93;100643.38;3607448;39;20057;-63
2022/12/15 07:52:53;;;;;;;35.83;19.73;;;;;;;-4.17;73.06;100600.63;3609245;39;20053;-63
2022/12/15 07:55:19;;;;;;;30.92;18.38;;;;;;;-3.97;73.03;100638.13;3610200;39;20062;-63
2022/12/15 07:57:47;;;;;;;33.83;19.90;;;;;;;-4.00;72.47;100632.88;3609682;39;20058;-63
2022/12/15 08:00:14;;;;;;;40.45;22.42;;;;;;;-3.95;72.47;100639.88;3609004;39;20051;-63
2022/12/15 08:02:41;;;;;;;34.40;20.25;;;;;;;-3.99;72.66;100639.91;3606666;39;20055;-63
2022/12/15 08:05:08;;;;;;;36.42;20.85;;;;;;;-3.93;72.82;100646.88;3606542;39;20054;-63
2022/12/15 08:07:34;;;;;;;36.70;20.45;;;;;;;-3.89;72.81;100658.22;3610864;39;20123;-63
2022/12/15 08:10:00;;;;;;;33.42;20.88;;;;;;;-3.90;73.16;100651.22;3610806;39;20079;-63
2022/12/15 08:12:30;;;;;;;35.60;21.08;;;;;;;-3.82;73.74;100658.16;3609122;39;20054;-63
2022/12/15 08:14:55;;;;;;;35.15;20.88;;;;;;;-3.79;73.13;100655.53;3610286;39;20426;-63
2022/12/15 08:17:21;;;;;;;31.63;19.17;;;;;;;-3.76;73.04;100657.28;3608834;39;20051;-63
2022/12/15 08:19:47;;;;;;;34.47;20.55;;;;;;;-3.72;72.98;100658.97;3610534;39;20059;-63
2022/12/15 08:22:14;;;;;;;36.35;19.80;;;;;;;-3.69;72.78;100655.47;3609384;39;20434;-63
2022/12/15 08:24:41;;;;;;;33.05;19.48;;;;;;;-3.64;72.70;100657.19;3607264;39;20047;-63
2022/12/15 08:27:07;;;;;;;33.55;20.40;;;;;;;-3.64;72.49;100657.19;3604496;39;20104;-63
2022/12/15 08:29:33;;;;;;;35.50;21.23;;;;;;;-3.59;72.65;100667.66;3610228;39;20062;-62
2022/12/15 08:31:59;;;;;;;40.42;19.92;;;;;;;-3.57;71.95;100661.50;3606348;39;20047;-63
2022/12/15 08:34:25;;;;;;;39.47;21.13;;;;;;;-3.54;72.51;100660.63;3610310;39;20050;-63
2022/12/15 08:36:51;;;;;;;38.20;21.02;;;;;;;-3.51;72.45;100655.34;3609980;39;20063;-63
2022/12/15 08:39:17;;;;;;;40.00;20.42;;;;;;;-3.50;72.15;100657.97;3608488;39;20078;-63
2022/12/15 08:41:43;;;;;;;35.58;20.58;;;;;;;-3.45;72.04;100662.31;3612113;39;20103;-64
2022/12/15 08:44:08;;;;;;;34.60;19.90;;;;;;;-3.43;72.12;100660.53;3611629;39;20446;-62
2022/12/15 08:46:34;;;;;;;38.30;20.92;;;;;;;-3.41;71.71;100657.03;3612680;39;20360;-64
2022/12/15 08:49:02;;;;;;;37.10;21.48;;;;;;;-3.39;71.90;100664.91;3611098;39;20047;-63
2022/12/15 08:51:31;;;;;;;38.78;22.48;;;;;;;-3.34;71.89;100660.47;3613154;39;20352;-64
2022/12/15 08:53:59;;;;;;;37.33;21.88;;;;;;;-3.45;71.51;100644.81;3608452;39;20067;-63
2022/12/15 08:56:28;;;;;;;38.03;22.60;;;;;;;-3.27;72.46;100670.94;3612662;39;20086;-63
2022/12/15 08:58:58;;;;;;;36.67;21.10;;;;;;;-3.19;72.00;100677.88;3610690;39;20101;-63
2022/12/15 09:01:27;;;;;;;39.20;21.50;;;;;;;-3.31;72.59;100642.06;3607623;39;20043;-64
2022/12/15 09:03:56;;;;;;;41.15;19.95;;;;;;;-3.18;72.25;100653.34;3612037;39;20050;-63
2022/12/15 09:06:32;;;;;;;33.45;21.13;;;;;;;-2.96;71.76;100685.56;3608756;39;20050;-63
2022/12/15 09:09:04;;;;;;;36.50;20.88;;;;;;;-2.97;71.26;100683.84;3611129;39;20066;-63
2022/12/15 09:11:30;;;;;;;33.72;19.77;;;;;;;-2.94;71.21;100689.06;3613830;39;20072;-63
2022/12/15 09:13:57;;;;;;;36.75;20.98;;;;;;;-2.81;71.74;100703.84;3615580;39;20073;-64
2022/12/15 09:16:24;;;;;;;37.88;22.05;;;;;;;-2.75;71.98;100705.56;3615179;39;20051;-63
2022/12/15 09:18:53;;;;;;;35.95;21.85;;;;;;;-2.68;71.74;100708.09;3614822;39;20049;-63
2022/12/15 09:21:23;;;;;;;35.75;20.30;;;;;;;-2.91;71.29;100666.25;3611079;39;20051;-63
2022/12/15 09:23:50;;;;;;;34.55;21.50;;;;;;;-2.61;71.24;100714.19;3611428;39;20286;-63
2022/12/15 09:26:19;;;;;;;36.08;21.58;;;;;;;-2.55;71.48;100715.88;3613675;39;20088;-63
2022/12/15 09:28:45;;;;;;;36.88;22.23;;;;;;;-2.51;70.97;100726.34;3614782;39;20047;-63
2022/12/15 09:31:27;;;;;;;36.53;21.70;;;;;;;-2.75;71.05;100680.13;3609564;39;20044;-63
2022/12/15 09:33:56;;;;;;;33.97;20.55;;;;;;;-2.41;70.93;100725.41;3606375;39;20055;-63
2022/12/15 09:36:22;;;;;;;39.83;21.63;;;;;;;-2.35;70.07;100727.97;3608537;39;20062;-63
2022/12/15 09:38:49;;;;;;;31.55;21.08;;;;;;;-2.34;70.80;100728.81;3613578;39;20119;-63
2022/12/15 09:41:30;;;;;;;38.03;22.23;;;;;;;-2.29;70.48;100721.72;3612567;39;20047;-63
2022/12/15 09:44:16;;;;;;;36.83;21.73;;;;;;;-2.25;70.11;100738.38;3608081;39;20069;-63
2022/12/15 09:47:22;;;;;;;37.15;21.10;;;;;;;-2.19;70.47;100733.94;3605184;39;20062;-64
2022/12/15 09:49:59;;;;;;;36.33;22.17;;;;;;;-2.10;71.07;100736.44;3605784;39;20052;-64
2022/12/15 09:52:29;;;;;;;40.60;23.60;;;;;;;-1.99;70.43;100743.38;3606711;39;20055;-63
2022/12/15 09:54:56;;;;;;;40.17;22.20;;;;;;;-1.88;70.29;100747.59;3605915;39;20055;-63
2022/12/15 09:57:43;;;;;;;37.22;21.92;;;;;;;-1.67;70.84;100738.56;3611682;39;20055;-63
2022/12/15 10:00:36;;;;;;;32.40;21.33;;;;;;;-1.48;70.12;100738.31;3606394;39;20055;-63
2022/12/15 10:03:20;;;;;;;36.25;21.95;;;;;;;-1.20;69.03;100734.38;3607608;39;20297;-63
2022/12/15 10:06:06;;;;;;;32.75;21.33;;;;;;;-0.95;67.84;100734.00;3607734;39;20055;-63
2022/12/15 10:08:54;;;;;;;32.67;20.85;;;;;;;-0.69;68.03;100730.06;3609013;39;20085;-63
2022/12/15 10:11:49;;;;;;;34.45;21.65;;;;;;;-0.39;67.65;100732.13;3610152;39;20139;-63
2022/12/15 10:14:34;;;;;;;35.75;22.08;;;;;;;-0.11;65.92;100740.41;3610310;39;20047;-63
2022/12/15 10:17:22;;;;;;;35.70;20.65;;;;;;;0.19;65.23;100731.00;3607565;39;20106;-63
2022/12/15 10:20:15;;;;;;;27.70;18.50;;;;;;;0.47;63.72;100733.91;3606154;39;20086;-63
2022/12/15 10:22:41;;;;;;;31.27;19.42;;;;;;;0.65;63.44;100724.72;3606889;39;20051;-62
2022/12/15 10:25:22;;;;;;;32.15;19.73;;;;;;;0.88;63.16;100725.94;3609383;39;20075;-64
2022/12/15 10:28:28;;;;;;;27.13;18.25;;;;;;;1.04;62.49;100734.41;3606229;39;20062;-62
2022/12/15 10:31:04;;;;;;;35.42;18.98;;;;;;;1.20;61.30;100734.88;3609403;39;20055;-62
2022/12/15 10:33:41;;;;;;;31.30;19.55;;;;;;;1.27;60.63;100736.47;3608653;39;20051;-62
2022/12/15 10:36:12;;;;;;;34.03;18.45;;;;;;;1.38;60.89;100739.72;3606062;39;20058;-61
2022/12/15 10:38:47;;;;;;;31.80;18.88;;;;;;;1.53;60.42;100744.63;3602640;39;20059;-62
2022/12/15 10:41:22;;;;;;;33.22;19.60;;;;;;;1.56;60.19;100728.66;3607807;39;20417;-62
2022/12/15 10:43:51;;;;;;;29.27;18.92;;;;;;;1.73;60.25;100740.59;3604971;39;20058;-62
2022/12/15 10:46:21;;;;;;;31.17;19.42;;;;;;;1.81;60.00;100733.31;3609261;39;20066;-63
2022/12/15 10:48:50;;;;;;;29.42;19.60;;;;;;;1.89;59.64;100741.03;3608948;39;20061;-62
2022/12/15 10:51:20;;;;;;;29.35;19.13;;;;;;;2.08;60.63;100735.19;3605119;39;20063;-63
2022/12/15 10:54:00;;;;;;;30.65;18.63;;;;;;;2.28;59.94;100734.63;3605127;39;20128;-63
2022/12/15 10:56:28;;;;;;;28.13;17.83;;;;;;;2.54;59.18;100731.19;3607429;39;20074;-63
2022/12/15 10:59:00;;;;;;;30.73;19.02;;;;;;;2.67;58.82;100736.13;3607228;39;20720;-63
2022/12/15 11:01:30;;;;;;;32.92;18.42;;;;;;;2.80;57.66;100726.88;3608844;39;20075;-63
2022/12/15 11:03:57;;;;;;;34.30;18.15;;;;;;;3.01;56.25;100731.50;3604682;39;20292;-63
2022/12/15 11:06:31;;;;;;;29.15;18.27;;;;;;;3.12;56.56;100717.00;3608249;39;20472;-63
2022/12/15 11:09:28;;;;;;;27.77;18.83;;;;;;;3.40;55.60;100733.75;3613315;39;20389;-63
2022/12/15 11:14:46;;;;;;;27.98;18.75;;;;;;;3.63;55.34;100738.28;3609941;39;20461;-63
2022/12/15 11:17:20;;;;;;;30.40;18.85;;;;;;;3.68;55.61;100733.69;3607098;39;20374;-63
2022/12/15 11:19:55;;;;;;;28.55;18.77;;;;;;;3.79;54.52;100724.44;3607765;39;20059;-63
2022/12/15 11:22:30;;;;;;;30.25;19.55;;;;;;;3.95;55.03;100725.63;3606347;39;20138;-63
2022/12/15 11:25:24;;;;;;;32.67;19.70;;;;;;;4.06;54.15;100707.50;3610290;39;20080;-63
2022/12/15 11:27:56;;;;;;;27.88;19.00;;;;;;;4.21;53.87;100719.34;3609237;39;20378;-63
2022/12/15 11:30:36;;;;;;;25.38;17.38;;;;;;;4.39;53.01;100721.31;3606000;39;20063;-63
2022/12/15 11:33:03;;;;;;;26.20;17.75;;;;;;;4.47;53.13;100729.00;3605172;39;20074;-62
2022/12/15 11:35:56;;;;;;;29.33;18.55;;;;;;;4.60;52.54;100729.44;3607626;39;21465;-63
2022/12/15 11:38:51;;;;;;;30.50;18.65;;;;;;;4.75;52.08;100723.47;3609309;39;20059;-63
2022/12/15 11:41:31;;;;;;;31.38;17.15;;;;;;;5.02;51.76;100729.50;3608360;39;20054;-63
2022/12/15 11:44:27;;;;;;;30.92;18.45;;;;;;;5.24;50.80;100732.16;3606204;39;20059;-63
2022/12/15 11:47:26;;;;;;;27.42;17.67;;;;;;;5.34;50.77;100733.50;3609629;39;20393;-63
2022/12/15 11:50:55;;;;;;;25.10;17.95;;;;;;;5.43;49.67;100729.59;3614331;39;20457;-63
2022/12/15 11:54:06;;;;;;;30.52;18.50;;;;;;;5.39;50.25;100725.31;3607346;39;20069;-63
2022/12/15 11:57:01;;;;;;;26.15;18.67;;;;;;;5.47;49.96;100728.53;3606438;39;20044;-64
2022/12/15 12:00:09;;;;;;;28.13;18.17;;;;;;;5.44;49.53;100728.66;3605631;39;20107;-63
2022/12/15 12:03:19;;;;;;;27.60;18.98;;;;;;;5.54;48.85;100715.81;3607837;39;20314;-64
2022/12/15 12:06:14;;;;;;;29.05;19.83;;;;;;;5.76;48.84;100711.28;3606963;39;20046;-64
2022/12/15 12:09:06;;;;;;;29.48;19.40;;;;;;;5.70;48.47;100681.34;3604652;39;20456;-63
2022/12/15 12:11:53;;;;;;;32.47;20.50;;;;;;;5.94;49.50;100701.63;3606839;39;20059;-64
2022/12/15 12:14:30;;;;;;;31.13;20.98;;;;;;;6.17;48.73;100697.91;3606607;39;20054;-63
2022/12/15 12:17:15;;;;;;;29.30;20.73;;;;;;;6.37;47.13;100698.81;3607293;39;20058;-63
2022/12/15 12:20:14;;;;;;;27.85;19.63;;;;;;;6.38;47.74;100695.22;3599502;39;20285;-63
2022/12/15 12:23:24;;;;;;;30.33;19.90;;;;;;;6.44;47.27;100692.25;3608081;39;20132;-63
2022/12/15 12:26:27;;;;;;;30.17;20.80;;;;;;;6.57;47.14;100696.09;3583934;39;20063;-64
2022/12/15 12:29:14;;;;;;;30.45;20.20;;;;;;;6.67;47.96;100688.50;3608751;39;20074;-63
2022/12/15 12:32:17;;;;;;;29.75;20.30;;;;;;;6.82;46.76;100685.09;3609455;39;20129;-63
2022/12/15 12:35:27;;;;;;;28.08;19.25;;;;;;;6.93;46.79;100685.41;3610472;39;20063;-63
2022/12/15 12:38:01;;;;;;;29.05;19.90;;;;;;;7.03;47.07;100677.81;3609800;39;20055;-63
2022/12/15 12:40:40;;;;;;;27.85;19.63;;;;;;;7.20;46.11;100690.34;3598137;39;20406;-62
2022/12/15 12:43:10;;;;;;;26.70;19.52;;;;;;;7.26;45.90;100691.81;3609628;39;20080;-63
2022/12/15 12:45:58;;;;;;;28.38;20.17;;;;;;;7.05;46.57;100696.47;3605331;39;20047;-64
2022/12/15 12:48:51;;;;;;;32.22;20.55;;;;;;;6.90;46.78;100698.06;3607776;39;20063;-63
2022/12/15 12:51:22;;;;;;;31.70;20.55;;;;;;;6.79;47.55;100692.34;3605756;39;20070;-62
2022/12/15 12:53:49;;;;;;;29.90;20.00;;;;;;;6.62;48.03;100682.50;3605036;39;20047;-63
2022/12/15 12:56:50;;;;;;;29.60;20.63;;;;;;;6.66;48.29;100681.41;3596050;39;20051;-63
2022/12/15 13:00:20;;;;;;;30.15;21.15;;;;;;;6.80;47.20;100672.75;3565739;40;20060;-63
2022/12/15 13:02:54;;;;;;;37.13;23.25;;;;;;;6.98;47.88;100670.03;3595319;39;20046;-63
2022/12/15 13:05:36;;;;;;;28.20;21.10;;;;;;;7.13;47.41;100667.53;3606346;39;20379;-64
2022/12/15 13:08:04;;;;;;;28.02;20.40;;;;;;;7.28;47.03;100655.19;3607498;39;20047;-63
2022/12/15 13:10:35;;;;;;;28.77;20.45;;;;;;;7.42;46.06;100652.66;3607132;39;20059;-63
2022/12/15 13:13:29;;;;;;;36.67;26.10;;;;;;;7.59;46.50;100660.69;3607127;39;20411;-63
2022/12/15 13:16:01;;;;;;;31.27;21.15;;;;;;;7.68;45.76;100654.88;3605196;39;20059;-63
2022/12/15 13:18:27;;;;;;;28.13;20.15;;;;;;;7.64;45.70;100634.59;3607997;39;20621;-63
2022/12/15 13:20:55;;;;;;;28.40;20.23;;;;;;;7.48;45.90;100598.00;3603715;39;20058;-63
2022/12/15 13:23:21;;;;;;;29.05;21.10;;;;;;;7.68;45.75;100645.97;3603286;39;20063;-63
2022/12/15 13:25:52;;;;;;;33.03;21.52;;;;;;;7.65;45.37;100638.13;3608274;39;20078;-63
2022/12/15 13:28:34;;;;;;;29.13;20.90;;;;;;;7.61;45.72;100640.09;3607364;39;20059;-62
2022/12/15 13:31:15;;;;;;;29.85;20.83;;;;;;;7.63;45.58;100638.19;3607006;39;20287;-64
2022/12/15 13:33:50;;;;;;;31.67;21.52;;;;;;;7.55;46.37;100637.75;3609142;39;20053;-64
2022/12/15 13:36:40;;;;;;;29.20;20.40;;;;;;;7.48;45.52;100632.78;3608630;39;20059;-64
2022/12/15 13:39:15;;;;;;;32.45;21.40;;;;;;;7.52;45.59;100632.53;3609449;39;20123;-64
2022/12/15 13:41:53;;;;;;;28.98;20.45;;;;;;;7.47;46.32;100633.72;3610382;39;20050;-64
2022/12/15 13:44:50;;;;;;;33.22;20.75;;;;;;;7.43;46.03;100627.69;3607777;39;20135;-64
2022/12/15 13:47:28;;;;;;;29.02;19.80;;;;;;;7.46;46.16;100632.88;3608729;39;20051;-64
2022/12/15 13:49:59;;;;;;;31.67;21.10;;;;;;;7.57;46.59;100622.44;3605844;39;20047;-63
2022/12/15 13:52:47;;;;;;;30.08;21.27;;;;;;;7.55;46.19;100634.16;3607334;39;20062;-64
2022/12/15 13:55:24;;;;;;;26.33;19.75;;;;;;;7.24;46.67;100632.25;3610311;39;20087;-64
2022/12/15 13:58:02;;;;;;;29.75;21.55;;;;;;;6.66;47.77;100630.66;3609330;39;20409;-64
2022/12/15 14:00:28;;;;;;;29.70;20.88;;;;;;;6.24;48.14;100624.63;3607756;39;20044;-63
2022/12/15 14:03:10;;;;;;;31.83;20.70;;;;;;;6.13;49.09;100616.28;3596823;39;20051;-64
2022/12/15 14:05:40;;;;;;;34.10;21.05;;;;;;;6.18;49.47;100622.25;3607514;39;20438;-64
2022/12/15 14:08:13;;;;;;;29.70;20.63;;;;;;;6.13;49.52;100626.94;3606451;39;20050;-64
2022/12/15 14:11:03;;;;;;;30.33;20.80;;;;;;;6.03;49.45;100621.19;3607977;39;20058;-64
2022/12/15 14:13:34;;;;;;;29.52;20.88;;;;;;;6.05;49.44;100626.44;3607754;39;20057;-64